sensor_id;sensor_type;location;lat;lon;timestamp;temperature;humidity
46085;DHT22;31823;47.032;8.310;2023-01-25T00:01:53;0.00;99.90
46085;DHT22;31823;47.032;8.310;2023-01-25T00:04:19;-0.10;99.90
46085;DHT22;31823;47.032;8.310;2023-01-25T00:06:46;-0.10;99.90
46085;DHT22;31823;47.032;8.310;2023-01-25T00:09:12;-0.10;99.90
46085;DHT22;31823;47.032;8.310;2023-01-25T00:11:37;-0.10;99.90
46085;DHT22;31823;47.032;8.310;2023-01-25T00:14:04;-0.10;99.90
46085;DHT22;31823;47.032;8.310;2023-01-25T00:16:30;-0.10;99.90
46085;DHT22;31823;47.032;8.310;2023-01-25T00:18:56;-0.10;99.90
46085;DHT22;31823;47.032;8.310;2023-01-25T00:21:23;-0.10;99.90
46085;DHT22;31823;47.032;8.310;2023-01-25T00:23:49;-0.10;99.90
46085;DHT22;31823;47.032;8.310;2023-01-25T00:26:15;-0.10;99.90
46085;DHT22;31823;47.032;8.310;2023-01-25T00:28:41;-0.10;99.90
46085;DHT22;31823;47.032;8.310;2023-01-25T00:31:10;-0.10;99.90
46085;DHT22;31823;47.032;8.310;2023-01-25T00:33:49;-0.10;99.90
46085;DHT22;31823;47.032;8.310;2023-01-25T00:36:32;-0.20;99.90
46085;DHT22;31823;47.032;8.310;2023-01-25T00:38:59;-0.10;99.90
46085;DHT22;31823;47.032;8.310;2023-01-25T00:41:24;-0.10;99.90
46085;DHT22;31823;47.032;8.310;2023-01-25T00:43:50;-0.10;99.90
46085;DHT22;31823;47.032;8.310;2023-01-25T00:46:17;-0.10;99.90
46085;DHT22;31823;47.032;8.310;2023-01-25T00:48:45;-0.10;99.90
46085;DHT22;31823;47.032;8.310;2023-01-25T00:51:11;-0.10;99.90
46085;DHT22;31823;47.032;8.310;2023-01-25T00:53:37;0.00;99.90
46085;DHT22;31823;47.032;8.310;2023-01-25T00:56:03;-0.10;99.90
46085;DHT22;31823;47.032;8.310;2023-01-25T00:58:28;-0.10;99.90
46085;DHT22;31823;47.032;8.310;2023-01-25T01:00:55;-0.10;99.90
46085;DHT22;31823;47.032;8.310;2023-01-25T01:03:21;-0.10;99.90
46085;DHT22;31823;47.032;8.310;2023-01-25T01:05:47;-0.10;99.90
46085;DHT22;31823;47.032;8.310;2023-01-25T01:08:13;-0.10;99.90
46085;DHT22;31823;47.032;8.310;2023-01-25T01:10:39;-0.10;99.90
46085;DHT22;31823;47.032;8.310;2023-01-25T01:13:06;0.00;99.90
46085;DHT22;31823;47.032;8.310;2023-01-25T01:15:35;-0.10;99.90
46085;DHT22;31823;47.032;8.310;2023-01-25T01:18:01;-0.10;99.90
46085;DHT22;31823;47.032;8.310;2023-01-25T01:20:27;-0.10;99.90
46085;DHT22;31823;47.032;8.310;2023-01-25T01:22:52;-0.10;99.90
46085;DHT22;31823;47.032;8.310;2023-01-25T01:25:20;-0.10;99.90
46085;DHT22;31823;47.032;8.310;2023-01-25T01:27:45;-0.20;99.90
46085;DHT22;31823;47.032;8.310;2023-01-25T01:30:11;-0.20;99.90
46085;DHT22;31823;47.032;8.310;2023-01-25T01:32:37;-0.10;99.90
46085;DHT22;31823;47.032;8.310;2023-01-25T01:35:03;-0.20;99.90
46085;DHT22;31823;47.032;8.310;2023-01-25T01:37:28;-0.20;99.90
46085;DHT22;31823;47.032;8.310;2023-01-25T01:39:54;-0.20;99.90
46085;DHT22;31823;47.032;8.310;2023-01-25T01:42:19;-0.20;99.90
46085;DHT22;31823;47.032;8.310;2023-01-25T01:44:50;-0.20;99.90
46085;DHT22;31823;47.032;8.310;2023-01-25T01:47:21;-0.20;99.90
46085;DHT22;31823;47.032;8.310;2023-01-25T01:49:54;-0.20;99.90
46085;DHT22;31823;47.032;8.310;2023-01-25T01:52:30;-0.20;99.90
46085;DHT22;31823;47.032;8.310;2023-01-25T01:55:02;-0.20;99.90
46085;DHT22;31823;47.032;8.310;2023-01-25T01:57:35;-0.20;99.90
46085;DHT22;31823;47.032;8.310;2023-01-25T02:00:10;-0.10;99.90
46085;DHT22;31823;47.032;8.310;2023-01-25T02:02:36;0.00;99.90
46085;DHT22;31823;47.032;8.310;2023-01-25T02:05:04;0.00;99.90
46085;DHT22;31823;47.032;8.310;2023-01-25T02:07:36;0.00;99.90
46085;DHT22;31823;47.032;8.310;2023-01-25T02:10:04;-0.10;99.90
46085;DHT22;31823;47.032;8.310;2023-01-25T02:12:31;0.00;99.90
46085;DHT22;31823;47.032;8.310;2023-01-25T02:14:56;0.00;99.90
46085;DHT22;31823;47.032;8.310;2023-01-25T02:17:31;-0.10;99.90
46085;DHT22;31823;47.032;8.310;2023-01-25T02:23:02;-0.20;99.90
46085;DHT22;31823;47.032;8.310;2023-01-25T02:25:31;-0.20;99.90
46085;DHT22;31823;47.032;8.310;2023-01-25T02:28:22;-0.20;99.90
46085;DHT22;31823;47.032;8.310;2023-01-25T02:30:46;-0.20;99.90
46085;DHT22;31823;47.032;8.310;2023-01-25T02:33:12;-0.20;99.90
46085;DHT22;31823;47.032;8.310;2023-01-25T02:35:44;-0.20;99.90
46085;DHT22;31823;47.032;8.310;2023-01-25T02:38:12;-0.20;99.90
46085;DHT22;31823;47.032;8.310;2023-01-25T02:40:46;-0.20;99.90
46085;DHT22;31823;47.032;8.310;2023-01-25T02:43:14;-0.20;99.90
46085;DHT22;31823;47.032;8.310;2023-01-25T02:45:40;-0.20;99.90
46085;DHT22;31823;47.032;8.310;2023-01-25T02:48:08;-0.20;99.90
46085;DHT22;31823;47.032;8.310;2023-01-25T02:50:33;-0.20;99.90
46085;DHT22;31823;47.032;8.310;2023-01-25T02:52:59;-0.20;99.90
46085;DHT22;31823;47.032;8.310;2023-01-25T02:55:24;-0.20;99.90
46085;DHT22;31823;47.032;8.310;2023-01-25T02:57:50;-0.20;99.90
46085;DHT22;31823;47.032;8.310;2023-01-25T03:00:15;-0.20;99.90
46085;DHT22;31823;47.032;8.310;2023-01-25T03:02:41;-0.20;99.90
46085;DHT22;31823;47.032;8.310;2023-01-25T03:05:07;-0.20;99.90
46085;DHT22;31823;47.032;8.310;2023-01-25T03:07:33;-0.20;99.90
46085;DHT22;31823;47.032;8.310;2023-01-25T03:09:58;-0.20;99.90
46085;DHT22;31823;47.032;8.310;2023-01-25T03:12:24;-0.20;99.90
46085;DHT22;31823;47.032;8.310;2023-01-25T03:14:49;-0.20;99.90
46085;DHT22;31823;47.032;8.310;2023-01-25T03:17:15;-0.20;99.90
46085;DHT22;31823;47.032;8.310;2023-01-25T03:19:40;-0.10;99.90
46085;DHT22;31823;47.032;8.310;2023-01-25T03:22:06;-0.20;99.90
46085;DHT22;31823;47.032;8.310;2023-01-25T03:24:32;-0.10;99.90
46085;DHT22;31823;47.032;8.310;2023-01-25T03:26:57;0.10;99.90
46085;DHT22;31823;47.032;8.310;2023-01-25T03:29:35;0.00;99.90
46085;DHT22;31823;47.032;8.310;2023-01-25T03:32:01;-0.10;99.90
46085;DHT22;31823;47.032;8.310;2023-01-25T03:34:26;-0.10;99.90
46085;DHT22;31823;47.032;8.310;2023-01-25T03:36:52;-0.10;99.90
46085;DHT22;31823;47.032;8.310;2023-01-25T03:39:17;0.00;99.90
46085;DHT22;31823;47.032;8.310;2023-01-25T03:41:43;0.00;99.90
46085;DHT22;31823;47.032;8.310;2023-01-25T03:44:09;-0.10;99.90
46085;DHT22;31823;47.032;8.310;2023-01-25T03:46:38;-0.10;99.90
46085;DHT22;31823;47.032;8.310;2023-01-25T03:49:04;-0.10;99.90
46085;DHT22;31823;47.032;8.310;2023-01-25T03:51:29;-0.10;99.90
46085;DHT22;31823;47.032;8.310;2023-01-25T03:53:55;-0.10;99.90
46085;DHT22;31823;47.032;8.310;2023-01-25T03:56:20;-0.10;99.90
46085;DHT22;31823;47.032;8.310;2023-01-25T03:58:46;-0.20;99.90
46085;DHT22;31823;47.032;8.310;2023-01-25T04:01:12;-0.20;99.90
46085;DHT22;31823;47.032;8.310;2023-01-25T04:03:38;-0.20;99.90
46085;DHT22;31823;47.032;8.310;2023-01-25T04:06:04;-0.20;99.90
46085;DHT22;31823;47.032;8.310;2023-01-25T04:08:30;-0.20;99.90
46085;DHT22;31823;47.032;8.310;2023-01-25T04:11:01;-0.20;99.90
46085;DHT22;31823;47.032;8.310;2023-01-25T04:13:28;-0.20;99.90
46085;DHT22;31823;47.032;8.310;2023-01-25T04:15:54;-0.20;99.90
46085;DHT22;31823;47.032;8.310;2023-01-25T04:18:19;-0.30;99.90
46085;DHT22;31823;47.032;8.310;2023-01-25T04:20:45;-0.30;99.90
46085;DHT22;31823;47.032;8.310;2023-01-25T04:23:16;-0.20;99.90
46085;DHT22;31823;47.032;8.310;2023-01-25T04:25:41;-0.20;99.90
46085;DHT22;31823;47.032;8.310;2023-01-25T04:28:07;-0.10;99.90
46085;DHT22;31823;47.032;8.310;2023-01-25T04:30:32;-0.20;99.90
46085;DHT22;31823;47.032;8.310;2023-01-25T04:33:04;-0.20;99.90
46085;DHT22;31823;47.032;8.310;2023-01-25T04:35:31;-0.20;99.90
46085;DHT22;31823;47.032;8.310;2023-01-25T04:37:58;-0.20;99.90
46085;DHT22;31823;47.032;8.310;2023-01-25T04:40:24;-0.30;99.90
46085;DHT22;31823;47.032;8.310;2023-01-25T04:42:49;-0.20;99.90
46085;DHT22;31823;47.032;8.310;2023-01-25T04:45:15;-0.30;99.90
46085;DHT22;31823;47.032;8.310;2023-01-25T04:47:41;-0.20;99.90
46085;DHT22;31823;47.032;8.310;2023-01-25T04:50:06;-0.20;99.90
46085;DHT22;31823;47.032;8.310;2023-01-25T04:52:32;-0.20;99.90
46085;DHT22;31823;47.032;8.310;2023-01-25T04:54:58;-0.20;99.90
46085;DHT22;31823;47.032;8.310;2023-01-25T04:57:23;-0.20;99.90
46085;DHT22;31823;47.032;8.310;2023-01-25T04:59:49;-0.20;99.90
46085;DHT22;31823;47.032;8.310;2023-01-25T05:02:14;-0.20;99.90
46085;DHT22;31823;47.032;8.310;2023-01-25T05:04:40;-0.20;99.90
46085;DHT22;31823;47.032;8.310;2023-01-25T05:07:06;-0.20;99.90
46085;DHT22;31823;47.032;8.310;2023-01-25T05:09:31;-0.20;99.90
46085;DHT22;31823;47.032;8.310;2023-01-25T05:11:57;-0.20;99.90
46085;DHT22;31823;47.032;8.310;2023-01-25T05:14:22;-0.20;99.90
46085;DHT22;31823;47.032;8.310;2023-01-25T05:16:48;-0.20;99.90
46085;DHT22;31823;47.032;8.310;2023-01-25T05:19:14;-0.10;99.90
46085;DHT22;31823;47.032;8.310;2023-01-25T05:21:39;-0.10;99.90
46085;DHT22;31823;47.032;8.310;2023-01-25T05:24:27;-0.10;99.90
46085;DHT22;31823;47.032;8.310;2023-01-25T05:26:53;-0.20;99.90
46085;DHT22;31823;47.032;8.310;2023-01-25T05:29:27;-0.20;99.90
46085;DHT22;31823;47.032;8.310;2023-01-25T05:31:53;-0.20;99.90
46085;DHT22;31823;47.032;8.310;2023-01-25T05:34:19;-0.20;99.90
46085;DHT22;31823;47.032;8.310;2023-01-25T05:36:45;-0.20;99.90
46085;DHT22;31823;47.032;8.310;2023-01-25T05:39:10;-0.20;99.90
46085;DHT22;31823;47.032;8.310;2023-01-25T05:41:36;-0.20;99.90
46085;DHT22;31823;47.032;8.310;2023-01-25T05:44:02;-0.20;99.90
46085;DHT22;31823;47.032;8.310;2023-01-25T05:46:28;-0.20;99.90
46085;DHT22;31823;47.032;8.310;2023-01-25T05:48:53;-0.20;99.90
46085;DHT22;31823;47.032;8.310;2023-01-25T05:51:19;-0.20;99.90
46085;DHT22;31823;47.032;8.310;2023-01-25T05:53:44;-0.30;99.90
46085;DHT22;31823;47.032;8.310;2023-01-25T05:56:10;-0.30;99.90
46085;DHT22;31823;47.032;8.310;2023-01-25T05:58:36;-0.20;99.90
46085;DHT22;31823;47.032;8.310;2023-01-25T06:01:03;-0.20;99.90
46085;DHT22;31823;47.032;8.310;2023-01-25T06:03:29;-0.10;99.90
46085;DHT22;31823;47.032;8.310;2023-01-25T06:05:55;-0.10;99.90
46085;DHT22;31823;47.032;8.310;2023-01-25T06:08:21;-0.10;99.90
46085;DHT22;31823;47.032;8.310;2023-01-25T06:10:46;-0.10;99.90
46085;DHT22;31823;47.032;8.310;2023-01-25T06:13:12;-0.20;99.90
46085;DHT22;31823;47.032;8.310;2023-01-25T06:15:37;-0.20;99.90
46085;DHT22;31823;47.032;8.310;2023-01-25T06:18:03;-0.20;99.90
46085;DHT22;31823;47.032;8.310;2023-01-25T06:20:29;-0.20;99.90
46085;DHT22;31823;47.032;8.310;2023-01-25T06:22:54;-0.30;99.90
46085;DHT22;31823;47.032;8.310;2023-01-25T06:25:20;-0.30;99.90
46085;DHT22;31823;47.032;8.310;2023-01-25T06:27:45;-0.30;99.90
46085;DHT22;31823;47.032;8.310;2023-01-25T06:30:12;-0.30;99.90
46085;DHT22;31823;47.032;8.310;2023-01-25T06:32:38;-0.30;99.90
46085;DHT22;31823;47.032;8.310;2023-01-25T06:35:04;-0.30;99.90
46085;DHT22;31823;47.032;8.310;2023-01-25T06:37:29;-0.30;99.90
46085;DHT22;31823;47.032;8.310;2023-01-25T06:39:55;-0.40;99.90
46085;DHT22;31823;47.032;8.310;2023-01-25T06:42:23;-0.30;99.90
46085;DHT22;31823;47.032;8.310;2023-01-25T06:44:49;-0.30;99.90
46085;DHT22;31823;47.032;8.310;2023-01-25T06:47:14;-0.30;99.90
46085;DHT22;31823;47.032;8.310;2023-01-25T06:49:40;-0.30;99.90
46085;DHT22;31823;47.032;8.310;2023-01-25T06:52:06;-0.30;99.90
46085;DHT22;31823;47.032;8.310;2023-01-25T06:54:31;-0.30;99.90
46085;DHT22;31823;47.032;8.310;2023-01-25T06:56:57;-0.40;99.90
46085;DHT22;31823;47.032;8.310;2023-01-25T06:59:23;-0.40;99.90
46085;DHT22;31823;47.032;8.310;2023-01-25T07:01:48;-0.30;99.90
46085;DHT22;31823;47.032;8.310;2023-01-25T07:04:14;-0.30;99.90
46085;DHT22;31823;47.032;8.310;2023-01-25T07:06:40;-0.30;99.90
46085;DHT22;31823;47.032;8.310;2023-01-25T07:09:08;-0.30;99.90
46085;DHT22;31823;47.032;8.310;2023-01-25T07:11:35;-0.20;99.90
46085;DHT22;31823;47.032;8.310;2023-01-25T07:14:01;-0.20;99.90
46085;DHT22;31823;47.032;8.310;2023-01-25T07:16:27;-0.20;99.90
46085;DHT22;31823;47.032;8.310;2023-01-25T07:18:53;-0.20;99.90
46085;DHT22;31823;47.032;8.310;2023-01-25T07:21:23;-0.20;99.90
46085;DHT22;31823;47.032;8.310;2023-01-25T07:23:49;-0.20;99.90
46085;DHT22;31823;47.032;8.310;2023-01-25T07:28:46;-0.10;99.90
46085;DHT22;31823;47.032;8.310;2023-01-25T07:31:12;-0.10;99.90
46085;DHT22;31823;47.032;8.310;2023-01-25T07:33:38;-0.20;99.90
46085;DHT22;31823;47.032;8.310;2023-01-25T07:36:06;-0.20;99.90
46085;DHT22;31823;47.032;8.310;2023-01-25T07:38:32;-0.20;99.90
46085;DHT22;31823;47.032;8.310;2023-01-25T07:40:58;-0.10;99.90
46085;DHT22;31823;47.032;8.310;2023-01-25T07:43:24;0.00;99.90
46085;DHT22;31823;47.032;8.310;2023-01-25T07:45:50;0.00;99.90
46085;DHT22;31823;47.032;8.310;2023-01-25T07:48:17;0.00;99.90
46085;DHT22;31823;47.032;8.310;2023-01-25T07:50:43;0.00;99.90
46085;DHT22;31823;47.032;8.310;2023-01-25T07:53:31;0.00;99.90
46085;DHT22;31823;47.032;8.310;2023-01-25T07:55:57;0.00;99.90
46085;DHT22;31823;47.032;8.310;2023-01-25T07:58:23;0.00;99.90
46085;DHT22;31823;47.032;8.310;2023-01-25T08:00:49;0.00;99.90
46085;DHT22;31823;47.032;8.310;2023-01-25T08:03:14;0.00;99.90
46085;DHT22;31823;47.032;8.310;2023-01-25T08:05:43;0.00;99.90
46085;DHT22;31823;47.032;8.310;2023-01-25T08:08:09;0.10;99.90
46085;DHT22;31823;47.032;8.310;2023-01-25T08:10:35;0.10;99.90
46085;DHT22;31823;47.032;8.310;2023-01-25T08:13:00;0.10;99.90
46085;DHT22;31823;47.032;8.310;2023-01-25T08:15:26;0.10;99.90
46085;DHT22;31823;47.032;8.310;2023-01-25T08:17:51;0.10;99.90
46085;DHT22;31823;47.032;8.310;2023-01-25T08:20:17;0.10;99.90
46085;DHT22;31823;47.032;8.310;2023-01-25T08:22:43;0.20;99.90
46085;DHT22;31823;47.032;8.310;2023-01-25T08:25:09;0.30;99.90
46085;DHT22;31823;47.032;8.310;2023-01-25T08:27:35;0.30;99.90
46085;DHT22;31823;47.032;8.310;2023-01-25T08:30:01;0.30;99.90
46085;DHT22;31823;47.032;8.310;2023-01-25T08:32:26;0.40;99.90
46085;DHT22;31823;47.032;8.310;2023-01-25T08:34:52;0.40;99.90
46085;DHT22;31823;47.032;8.310;2023-01-25T08:37:17;0.40;99.90
46085;DHT22;31823;47.032;8.310;2023-01-25T08:39:43;0.40;99.90
46085;DHT22;31823;47.032;8.310;2023-01-25T08:42:08;0.40;99.90
46085;DHT22;31823;47.032;8.310;2023-01-25T08:44:34;0.40;99.90
46085;DHT22;31823;47.032;8.310;2023-01-25T08:47:00;0.40;99.90
46085;DHT22;31823;47.032;8.310;2023-01-25T08:49:25;0.40;99.90
46085;DHT22;31823;47.032;8.310;2023-01-25T08:51:51;0.50;99.90
46085;DHT22;31823;47.032;8.310;2023-01-25T08:54:17;0.50;99.90
46085;DHT22;31823;47.032;8.310;2023-01-25T08:56:43;0.40;99.90
46085;DHT22;31823;47.032;8.310;2023-01-25T08:59:10;0.50;99.90
46085;DHT22;31823;47.032;8.310;2023-01-25T09:01:36;0.50;99.90
46085;DHT22;31823;47.032;8.310;2023-01-25T09:04:01;0.60;99.90
46085;DHT22;31823;47.032;8.310;2023-01-25T09:06:27;0.60;99.90
46085;DHT22;31823;47.032;8.310;2023-01-25T09:08:52;0.70;99.90
46085;DHT22;31823;47.032;8.310;2023-01-25T09:11:20;0.70;99.90
46085;DHT22;31823;47.032;8.310;2023-01-25T09:13:46;0.70;99.90
46085;DHT22;31823;47.032;8.310;2023-01-25T09:16:15;0.80;99.90
46085;DHT22;31823;47.032;8.310;2023-01-25T09:18:43;0.80;99.90
46085;DHT22;31823;47.032;8.310;2023-01-25T09:21:12;0.80;99.90
46085;DHT22;31823;47.032;8.310;2023-01-25T09:23:37;0.90;99.90
46085;DHT22;31823;47.032;8.310;2023-01-25T09:26:04;0.80;99.90
46085;DHT22;31823;47.032;8.310;2023-01-25T09:28:30;0.80;99.90
46085;DHT22;31823;47.032;8.310;2023-01-25T09:30:57;0.90;99.90
46085;DHT22;31823;47.032;8.310;2023-01-25T09:33:25;0.80;99.90
46085;DHT22;31823;47.032;8.310;2023-01-25T09:35:51;0.90;99.90
46085;DHT22;31823;47.032;8.310;2023-01-25T09:38:16;1.00;99.90
46085;DHT22;31823;47.032;8.310;2023-01-25T09:40:56;1.00;99.90
46085;DHT22;31823;47.032;8.310;2023-01-25T09:46:48;1.00;99.90
46085;DHT22;31823;47.032;8.310;2023-01-25T09:52:45;1.00;99.90
46085;DHT22;31823;47.032;8.310;2023-01-25T09:55:23;1.20;99.90
46085;DHT22;31823;47.032;8.310;2023-01-25T09:57:50;1.10;99.90
46085;DHT22;31823;47.032;8.310;2023-01-25T10:00:22;1.10;99.90
46085;DHT22;31823;47.032;8.310;2023-01-25T10:05:45;1.00;99.90
46085;DHT22;31823;47.032;8.310;2023-01-25T10:08:26;1.00;99.90
46085;DHT22;31823;47.032;8.310;2023-01-25T10:11:26;1.10;99.90
46085;DHT22;31823;47.032;8.310;2023-01-25T10:13:54;1.10;99.90
46085;DHT22;31823;47.032;8.310;2023-01-25T10:16:31;1.10;99.90
46085;DHT22;31823;47.032;8.310;2023-01-25T10:19:31;1.10;99.90
46085;DHT22;31823;47.032;8.310;2023-01-25T10:22:08;1.10;99.90
46085;DHT22;31823;47.032;8.310;2023-01-25T10:24:59;1.10;99.90
46085;DHT22;31823;47.032;8.310;2023-01-25T10:30:24;1.20;99.90
46085;DHT22;31823;47.032;8.310;2023-01-25T10:32:51;1.20;99.90
46085;DHT22;31823;47.032;8.310;2023-01-25T10:35:22;1.20;99.90
46085;DHT22;31823;47.032;8.310;2023-01-25T10:37:49;1.20;99.90
46085;DHT22;31823;47.032;8.310;2023-01-25T10:40:21;1.20;99.90
46085;DHT22;31823;47.032;8.310;2023-01-25T10:42:53;1.20;99.90
46085;DHT22;31823;47.032;8.310;2023-01-25T10:45:19;1.20;99.90
46085;DHT22;31823;47.032;8.310;2023-01-25T10:47:48;1.20;99.90
46085;DHT22;31823;47.032;8.310;2023-01-25T10:53:33;1.20;99.90
46085;DHT22;31823;47.032;8.310;2023-01-25T10:56:24;1.20;99.90
46085;DHT22;31823;47.032;8.310;2023-01-25T10:58:51;1.30;99.90
46085;DHT22;31823;47.032;8.310;2023-01-25T11:01:28;1.20;99.90
46085;DHT22;31823;47.032;8.310;2023-01-25T11:03:54;1.30;99.90
46085;DHT22;31823;47.032;8.310;2023-01-25T11:06:34;1.40;99.90
46085;DHT22;31823;47.032;8.310;2023-01-25T11:14:27;1.20;99.90
46085;DHT22;31823;47.032;8.310;2023-01-25T11:16:54;1.20;99.90
46085;DHT22;31823;47.032;8.310;2023-01-25T11:19:32;1.20;99.90
46085;DHT22;31823;47.032;8.310;2023-01-25T11:22:00;1.30;99.90
46085;DHT22;31823;47.032;8.310;2023-01-25T11:24:34;1.30;99.90
46085;DHT22;31823;47.032;8.310;2023-01-25T11:27:19;1.20;99.90
46085;DHT22;31823;47.032;8.310;2023-01-25T11:29:45;1.10;99.90
46085;DHT22;31823;47.032;8.310;2023-01-25T11:32:31;1.20;99.90
46085;DHT22;31823;47.032;8.310;2023-01-25T11:34:57;1.10;99.90
46085;DHT22;31823;47.032;8.310;2023-01-25T11:40:02;1.30;99.90
46085;DHT22;31823;47.032;8.310;2023-01-25T11:45:47;1.40;99.90
46085;DHT22;31823;47.032;8.310;2023-01-25T11:56:39;1.30;99.90
46085;DHT22;31823;47.032;8.310;2023-01-25T12:02:22;1.20;99.90
46085;DHT22;31823;47.032;8.310;2023-01-25T12:18:39;1.10;99.90
46085;DHT22;31823;47.032;8.310;2023-01-25T12:24:12;1.10;99.90
46085;DHT22;31823;47.032;8.310;2023-01-25T12:26:54;1.10;99.90
46085;DHT22;31823;47.032;8.310;2023-01-25T12:29:59;1.00;99.90
46085;DHT22;31823;47.032;8.310;2023-01-25T12:32:37;1.10;99.90
46085;DHT22;31823;47.032;8.310;2023-01-25T12:35:45;1.10;99.90
46085;DHT22;31823;47.032;8.310;2023-01-25T12:38:14;1.20;99.90
46085;DHT22;31823;47.032;8.310;2023-01-25T12:41:01;1.10;99.90
46085;DHT22;31823;47.032;8.310;2023-01-25T12:43:44;1.10;99.90
46085;DHT22;31823;47.032;8.310;2023-01-25T12:46:18;1.10;99.90
46085;DHT22;31823;47.032;8.310;2023-01-25T12:48:48;1.00;99.90
46085;DHT22;31823;47.032;8.310;2023-01-25T12:51:16;1.00;99.90
46085;DHT22;31823;47.032;8.310;2023-01-25T12:53:44;1.00;99.90
46085;DHT22;31823;47.032;8.310;2023-01-25T12:56:39;1.10;99.90
46085;DHT22;31823;47.032;8.310;2023-01-25T12:59:29;1.10;99.90
46085;DHT22;31823;47.032;8.310;2023-01-25T13:05:28;1.10;99.90
46085;DHT22;31823;47.032;8.310;2023-01-25T13:08:13;1.00;99.90
46085;DHT22;31823;47.032;8.310;2023-01-25T13:10:46;1.00;99.90
46085;DHT22;31823;47.032;8.310;2023-01-25T13:13:31;1.00;99.90
46085;DHT22;31823;47.032;8.310;2023-01-25T13:16:30;1.00;99.90
46085;DHT22;31823;47.032;8.310;2023-01-25T13:18:57;1.00;99.90
46085;DHT22;31823;47.032;8.310;2023-01-25T13:32:11;1.00;99.90
46085;DHT22;31823;47.032;8.310;2023-01-25T13:37:28;1.00;99.90
46085;DHT22;31823;47.032;8.310;2023-01-25T13:42:32;1.00;99.90
46085;DHT22;31823;47.032;8.310;2023-01-25T13:44:58;1.00;99.90
46085;DHT22;31823;47.032;8.310;2023-01-25T13:47:29;1.00;99.90
46085;DHT22;31823;47.032;8.310;2023-01-25T13:50:13;1.00;99.90
46085;DHT22;31823;47.032;8.310;2023-01-25T13:53:00;1.10;99.90
46085;DHT22;31823;47.032;8.310;2023-01-25T13:55:28;1.00;99.90
46085;DHT22;31823;47.032;8.310;2023-01-25T13:58:08;1.00;99.90
46085;DHT22;31823;47.032;8.310;2023-01-25T14:00:34;1.00;99.90
46085;DHT22;31823;47.032;8.310;2023-01-25T14:03:01;1.00;99.90
46085;DHT22;31823;47.032;8.310;2023-01-25T14:05:29;1.00;99.90
46085;DHT22;31823;47.032;8.310;2023-01-25T14:07:55;1.00;99.90
46085;DHT22;31823;47.032;8.310;2023-01-25T14:10:24;1.10;99.90
46085;DHT22;31823;47.032;8.310;2023-01-25T14:12:53;1.10;99.90
46085;DHT22;31823;47.032;8.310;2023-01-25T14:15:28;1.00;99.90
46085;DHT22;31823;47.032;8.310;2023-01-25T14:18:27;1.00;99.90
46085;DHT22;31823;47.032;8.310;2023-01-25T14:21:16;1.00;99.90
46085;DHT22;31823;47.032;8.310;2023-01-25T14:23:43;0.90;99.90
46085;DHT22;31823;47.032;8.310;2023-01-25T14:26:25;1.00;99.90
46085;DHT22;31823;47.032;8.310;2023-01-25T14:28:56;1.00;99.90
46085;DHT22;31823;47.032;8.310;2023-01-25T14:31:24;0.90;99.90
46085;DHT22;31823;47.032;8.310;2023-01-25T14:33:51;0.90;99.90
46085;DHT22;31823;47.032;8.310;2023-01-25T14:36:26;0.90;99.90
46085;DHT22;31823;47.032;8.310;2023-01-25T14:38:53;0.90;99.90
46085;DHT22;31823;47.032;8.310;2023-01-25T14:41:28;0.90;99.90
46085;DHT22;31823;47.032;8.310;2023-01-25T14:43:58;0.90;99.90
46085;DHT22;31823;47.032;8.310;2023-01-25T14:51:30;0.90;99.90
46085;DHT22;31823;47.032;8.310;2023-01-25T14:54:00;0.90;99.90
46085;DHT22;31823;47.032;8.310;2023-01-25T14:58:55;0.90;99.90
46085;DHT22;31823;47.032;8.310;2023-01-25T15:01:28;0.80;99.90
46085;DHT22;31823;47.032;8.310;2023-01-25T15:03:55;0.70;99.90
46085;DHT22;31823;47.032;8.310;2023-01-25T15:06:21;0.80;99.90
46085;DHT22;31823;47.032;8.310;2023-01-25T15:08:46;0.80;99.90
46085;DHT22;31823;47.032;8.310;2023-01-25T15:11:28;0.80;99.90
46085;DHT22;31823;47.032;8.310;2023-01-25T15:14:10;0.70;99.90
46085;DHT22;31823;47.032;8.310;2023-01-25T15:16:48;0.70;99.90
46085;DHT22;31823;47.032;8.310;2023-01-25T15:19:24;0.60;99.90
46085;DHT22;31823;47.032;8.310;2023-01-25T15:21:50;0.60;99.90
46085;DHT22;31823;47.032;8.310;2023-01-25T15:24:16;0.60;99.90
46085;DHT22;31823;47.032;8.310;2023-01-25T15:26:42;0.60;99.90
46085;DHT22;31823;47.032;8.310;2023-01-25T15:29:15;0.60;99.90
46085;DHT22;31823;47.032;8.310;2023-01-25T15:31:41;0.60;99.90
46085;DHT22;31823;47.032;8.310;2023-01-25T15:34:15;0.60;99.90
46085;DHT22;31823;47.032;8.310;2023-01-25T15:36:40;0.50;99.90
46085;DHT22;31823;47.032;8.310;2023-01-25T15:39:14;0.50;99.90
46085;DHT22;31823;47.032;8.310;2023-01-25T15:41:39;0.50;99.90
46085;DHT22;31823;47.032;8.310;2023-01-25T15:44:06;0.50;99.90
46085;DHT22;31823;47.032;8.310;2023-01-25T15:46:32;0.40;99.90
46085;DHT22;31823;47.032;8.310;2023-01-25T15:48:58;0.40;99.90
46085;DHT22;31823;47.032;8.310;2023-01-25T15:51:25;0.40;99.90
46085;DHT22;31823;47.032;8.310;2023-01-25T15:53:51;0.40;99.90
46085;DHT22;31823;47.032;8.310;2023-01-25T15:56:29;0.40;99.90
46085;DHT22;31823;47.032;8.310;2023-01-25T15:59:00;0.40;99.90
46085;DHT22;31823;47.032;8.310;2023-01-25T16:01:27;0.50;99.90
46085;DHT22;31823;47.032;8.310;2023-01-25T16:03:58;0.50;99.90
46085;DHT22;31823;47.032;8.310;2023-01-25T16:06:35;0.40;99.90
46085;DHT22;31823;47.032;8.310;2023-01-25T16:09:26;0.30;99.90
46085;DHT22;31823;47.032;8.310;2023-01-25T16:11:55;0.30;99.90
46085;DHT22;31823;47.032;8.310;2023-01-25T16:14:22;0.30;99.90
46085;DHT22;31823;47.032;8.310;2023-01-25T16:16:54;0.30;99.90
46085;DHT22;31823;47.032;8.310;2023-01-25T16:19:21;0.30;99.90
46085;DHT22;31823;47.032;8.310;2023-01-25T16:21:47;0.20;99.90
46085;DHT22;31823;47.032;8.310;2023-01-25T16:24:13;0.20;99.90
46085;DHT22;31823;47.032;8.310;2023-01-25T16:26:44;0.20;99.90
46085;DHT22;31823;47.032;8.310;2023-01-25T16:29:11;0.20;99.90
46085;DHT22;31823;47.032;8.310;2023-01-25T16:31:37;0.20;99.90
46085;DHT22;31823;47.032;8.310;2023-01-25T16:34:02;0.20;99.90
46085;DHT22;31823;47.032;8.310;2023-01-25T16:36:29;0.20;99.90
46085;DHT22;31823;47.032;8.310;2023-01-25T16:38:58;0.20;99.90
46085;DHT22;31823;47.032;8.310;2023-01-25T16:41:30;0.10;99.90
46085;DHT22;31823;47.032;8.310;2023-01-25T16:43:56;0.10;99.90
46085;DHT22;31823;47.032;8.310;2023-01-25T16:46:22;0.20;99.90
46085;DHT22;31823;47.032;8.310;2023-01-25T16:48:49;0.20;99.90
46085;DHT22;31823;47.032;8.310;2023-01-25T16:51:16;0.20;99.90
46085;DHT22;31823;47.032;8.310;2023-01-25T16:53:43;0.10;99.90
46085;DHT22;31823;47.032;8.310;2023-01-25T16:56:19;0.20;99.90
46085;DHT22;31823;47.032;8.310;2023-01-25T16:58:46;0.10;99.90
46085;DHT22;31823;47.032;8.310;2023-01-25T17:01:13;0.10;99.90
46085;DHT22;31823;47.032;8.310;2023-01-25T17:03:39;0.10;99.90
46085;DHT22;31823;47.032;8.310;2023-01-25T17:06:05;0.10;99.90
46085;DHT22;31823;47.032;8.310;2023-01-25T17:08:32;0.10;99.90
46085;DHT22;31823;47.032;8.310;2023-01-25T17:11:05;0.20;99.90
46085;DHT22;31823;47.032;8.310;2023-01-25T17:13:30;0.30;99.90
46085;DHT22;31823;47.032;8.310;2023-01-25T17:15:56;0.30;99.90
46085;DHT22;31823;47.032;8.310;2023-01-25T17:18:22;0.20;99.90
46085;DHT22;31823;47.032;8.310;2023-01-25T17:20:59;0.20;99.90